createdAt,value
2022-09-23T00:01:08.370Z,51.89
2022-09-23T00:03:38.316Z,51.82
2022-09-23T00:06:25.037Z,51.95
2022-09-23T00:08:52.946Z,51.72
2022-09-23T00:11:21.411Z,51.78
2022-09-23T00:13:49.954Z,51.88
2022-09-23T00:16:19.213Z,51.88
2022-09-23T00:18:49.393Z,51.96
2022-09-23T00:21:17.273Z,51.80
2022-09-23T00:23:44.867Z,51.83
2022-09-23T00:26:13.164Z,51.86
2022-09-23T00:28:41.237Z,51.82
2022-09-23T00:31:09.867Z,51.73
2022-09-23T00:33:37.456Z,51.83
2022-09-23T00:36:07.650Z,52.01
2022-09-23T00:38:35.216Z,51.83
2022-09-23T00:41:03.057Z,51.73
2022-09-23T00:43:38.426Z,51.80
2022-09-23T00:46:06.283Z,51.71
2022-09-23T00:48:33.890Z,51.91
2022-09-23T00:51:01.488Z,51.68
2022-09-23T00:53:30.455Z,51.71
2022-09-23T00:55:58.433Z,51.81
2022-09-23T00:58:26.916Z,51.82
2022-09-23T01:00:54.616Z,51.79
2022-09-23T01:03:22.942Z,51.76
2022-09-23T01:05:50.499Z,51.75
2022-09-23T01:08:18.254Z,51.61
2022-09-23T01:10:51.162Z,51.70
2022-09-23T01:13:21.761Z,51.59
2022-09-23T01:15:50.021Z,51.67
2022-09-23T01:18:23.694Z,51.70
2022-09-23T01:21:10.460Z,51.84
2022-09-23T01:24:16.389Z,51.64
2022-09-23T01:26:54.417Z,51.70
2022-09-23T01:29:36.480Z,51.74
2022-09-23T01:32:07.963Z,51.79
2022-09-23T01:34:37.118Z,51.68
2022-09-23T01:37:07.345Z,51.78
2022-09-23T01:39:36.183Z,51.56
2022-09-23T01:42:06.198Z,51.61
2022-09-23T01:44:39.081Z,51.63
2022-09-23T01:47:11.648Z,51.67
2022-09-23T01:49:43.853Z,51.68
2022-09-23T01:52:15.836Z,51.56
2022-09-23T01:54:45.337Z,51.60
2022-09-23T01:57:13.564Z,51.74
2022-09-23T01:59:41.798Z,51.55
2022-09-23T02:02:14.000Z,51.69
2022-09-23T02:04:45.578Z,51.55
2022-09-23T02:07:15.501Z,51.54
2022-09-23T02:09:43.861Z,51.73
2022-09-23T02:12:13.561Z,51.66
2022-09-23T02:14:43.358Z,51.72
2022-09-23T02:17:14.087Z,51.55
2022-09-23T02:19:43.574Z,51.55
2022-09-23T02:22:13.794Z,51.54
2022-09-23T02:24:41.355Z,51.69
2022-09-23T02:27:13.525Z,51.59
2022-09-23T02:29:44.177Z,51.63
2022-09-23T02:32:14.494Z,51.44
2022-09-23T02:34:44.102Z,51.59
2022-09-23T02:37:16.659Z,51.44
2022-09-23T02:39:58.409Z,51.58
2022-09-23T02:42:28.857Z,51.63
2022-09-23T02:44:56.466Z,51.52
2022-09-23T02:47:28.281Z,51.51
2022-09-23T02:49:56.279Z,51.63
2022-09-23T02:52:24.883Z,51.53
2022-09-23T02:54:52.831Z,51.66
2022-09-23T02:57:20.364Z,51.63
2022-09-23T02:59:47.896Z,51.52
2022-09-23T03:02:28.181Z,51.38
2022-09-23T03:04:58.790Z,51.59
2022-09-23T03:07:33.038Z,51.39
2022-09-23T03:10:04.746Z,51.60
2022-09-23T03:12:36.047Z,51.41
2022-09-23T03:15:09.789Z,51.53
2022-09-23T03:17:40.589Z,51.53
2022-09-23T03:20:09.703Z,51.31
2022-09-23T03:22:39.834Z,51.46
2022-09-23T03:25:08.660Z,51.37
2022-09-23T03:27:36.369Z,51.54
2022-09-23T03:30:04.409Z,51.41
2022-09-23T03:32:32.283Z,51.33
2022-09-23T03:35:02.050Z,51.32
2022-09-23T03:37:31.335Z,51.26
2022-09-23T03:40:02.792Z,51.48
2022-09-23T03:42:31.548Z,51.47
2022-09-23T03:44:59.154Z,51.45
2022-09-23T03:47:27.634Z,51.55
2022-09-23T03:49:56.682Z,51.61
2022-09-23T03:52:26.042Z,51.47
2022-09-23T03:54:53.724Z,51.31
2022-09-23T03:57:22.439Z,51.39
2022-09-23T03:59:50.449Z,51.20
2022-09-23T04:02:18.190Z,51.25
2022-09-23T04:04:45.829Z,51.41
2022-09-23T04:07:13.570Z,51.46
2022-09-23T04:09:42.601Z,51.50
2022-09-23T04:12:11.544Z,51.17
2022-09-23T04:14:39.108Z,51.17
2022-09-23T04:17:06.651Z,51.61
2022-09-23T04:19:34.300Z,51.62
2022-09-23T04:22:01.852Z,51.46
2022-09-23T04:24:29.410Z,51.52
2022-09-23T04:26:58.348Z,51.36
2022-09-23T04:29:25.933Z,51.64
2022-09-23T04:31:53.598Z,51.33
2022-09-23T04:34:21.382Z,51.72
2022-09-23T04:36:49.408Z,51.70
2022-09-23T04:39:17.506Z,51.71
2022-09-23T04:41:45.226Z,51.60
2022-09-23T04:44:14.304Z,51.63
2022-09-23T04:46:41.999Z,51.56
2022-09-23T04:49:09.687Z,51.56
2022-09-23T04:51:37.307Z,51.75
2022-09-23T04:54:06.020Z,51.60
2022-09-23T04:56:33.932Z,51.71
2022-09-23T04:59:02.472Z,51.77
2022-09-23T05:01:32.565Z,51.79
2022-09-23T05:04:02.532Z,51.80
2022-09-23T05:06:31.429Z,51.63
2022-09-23T05:08:59.628Z,51.79
2022-09-23T05:11:27.337Z,51.55
2022-09-23T05:13:55.269Z,51.63
2022-09-23T05:16:23.620Z,51.65
2022-09-23T05:18:52.636Z,51.51
2022-09-23T05:21:20.960Z,51.64
2022-09-23T05:23:49.238Z,51.59
2022-09-23T05:26:16.877Z,51.70
2022-09-23T05:28:44.849Z,51.76
2022-09-23T05:31:19.395Z,51.58
2022-09-23T05:33:48.630Z,51.47
2022-09-23T05:36:18.794Z,51.51
2022-09-23T05:38:46.444Z,51.69
2022-09-23T05:41:14.246Z,51.69
2022-09-23T05:43:41.969Z,51.50
2022-09-23T05:46:11.216Z,51.45
2022-09-23T05:48:39.069Z,51.58
2022-09-23T05:51:08.988Z,51.58
2022-09-23T05:53:38.045Z,51.37
2022-09-23T05:56:06.133Z,51.36
2022-09-23T05:58:33.729Z,51.62
2022-09-23T06:01:01.354Z,51.53
2022-09-23T06:03:29.052Z,51.34
2022-09-23T06:05:56.754Z,51.38
2022-09-23T06:08:24.484Z,51.52
2022-09-23T06:10:54.536Z,51.14
2022-09-23T06:13:22.954Z,51.40
2022-09-23T06:15:50.629Z,51.44
2022-09-23T06:18:18.137Z,51.53
2022-09-23T06:20:45.657Z,51.19
2022-09-23T06:23:13.239Z,51.46
2022-09-23T06:25:40.785Z,51.56
2022-09-23T06:28:12.457Z,51.49
2022-09-23T06:30:40.477Z,51.33
2022-09-23T06:33:08.043Z,51.46
2022-09-23T06:35:35.666Z,51.59
2022-09-23T06:38:04.490Z,51.45
2022-09-23T06:40:32.669Z,51.52
2022-09-23T06:43:00.924Z,51.50
2022-09-23T06:45:29.893Z,51.45
2022-09-23T06:47:57.844Z,51.39
2022-09-23T06:50:25.564Z,51.52
2022-09-23T06:52:55.959Z,51.49
2022-09-23T06:55:25.210Z,51.31
2022-09-23T06:57:52.770Z,51.50
2022-09-23T07:00:20.549Z,51.38
2022-09-23T07:02:49.794Z,51.43
2022-09-23T07:05:18.173Z,51.48
2022-09-23T07:07:46.014Z,51.43
2022-09-23T07:10:13.571Z,51.64
2022-09-23T07:12:41.121Z,51.49
2022-09-23T07:15:09.701Z,51.34
2022-09-23T07:17:37.258Z,51.58
2022-09-23T07:20:06.983Z,51.42
2022-09-23T07:22:35.855Z,51.26
2022-09-23T07:25:03.606Z,51.34
2022-09-23T07:27:31.160Z,51.44
2022-09-23T07:29:58.732Z,51.33
2022-09-23T07:32:26.588Z,51.54
2022-09-23T07:34:54.603Z,51.49
2022-09-23T07:37:23.499Z,51.54
2022-09-23T07:39:51.245Z,51.49
2022-09-23T07:42:18.810Z,51.47
2022-09-23T07:44:46.774Z,51.57
2022-09-23T07:47:14.513Z,51.62
2022-09-23T07:49:42.090Z,51.49
2022-09-23T07:52:09.723Z,51.43
2022-09-23T07:54:38.769Z,51.41
2022-09-23T07:57:06.345Z,51.57
2022-09-23T07:59:34.537Z,51.50
2022-09-23T08:02:02.163Z,51.50
2022-09-23T08:04:31.068Z,51.49
2022-09-23T08:06:59.433Z,51.49
2022-09-23T08:09:28.145Z,51.54
2022-09-23T08:11:57.049Z,51.49
2022-09-23T08:14:24.597Z,51.62
2022-09-23T08:16:52.419Z,51.39
2022-09-23T08:19:20.008Z,51.42
2022-09-23T08:21:47.697Z,51.49
2022-09-23T08:24:16.254Z,51.51
2022-09-23T08:26:43.909Z,51.55
2022-09-23T08:29:14.553Z,51.65
2022-09-23T08:31:42.186Z,51.42
2022-09-23T08:34:09.784Z,51.58
2022-09-23T08:36:37.490Z,51.50
2022-09-23T08:39:05.485Z,51.64
2022-09-23T08:41:38.524Z,51.57
2022-09-23T08:44:11.841Z,51.68
2022-09-23T08:46:42.986Z,51.63
2022-09-23T08:49:10.583Z,51.62
2022-09-23T08:51:41.012Z,51.62
2022-09-23T08:54:10.288Z,51.56
2022-09-23T08:56:38.676Z,51.72
2022-09-23T08:59:08.458Z,51.45
2022-09-23T09:01:41.003Z,51.68
2022-09-23T09:04:16.342Z,51.57
2022-09-23T09:06:53.684Z,51.48
2022-09-23T09:09:24.601Z,51.49
2022-09-23T09:11:53.815Z,51.59
2022-09-23T09:14:24.424Z,51.59
2022-09-23T09:16:59.835Z,51.67
2022-09-23T09:19:44.094Z,51.52
2022-09-23T09:22:14.919Z,51.38
2022-09-23T09:24:44.500Z,51.53
2022-09-23T09:27:13.056Z,51.59
2022-09-23T09:29:42.323Z,51.59
2022-09-23T09:32:14.718Z,51.66
2022-09-23T09:34:45.274Z,51.59
2022-09-23T09:37:14.716Z,51.54
2022-09-23T09:39:42.348Z,51.72
2022-09-23T09:42:11.216Z,51.64
2022-09-23T09:44:41.411Z,51.53
2022-09-23T09:47:16.068Z,51.65
2022-09-23T09:49:47.705Z,51.59
2022-09-23T09:52:26.014Z,51.72
2022-09-23T09:54:59.122Z,51.73
2022-09-23T09:57:35.060Z,51.79
2022-09-23T10:00:19.189Z,51.89
2022-09-23T10:02:46.828Z,52.13
2022-09-23T10:05:26.832Z,52.08
2022-09-23T10:07:54.442Z,52.00
2022-09-23T10:10:32.530Z,52.24
2022-09-23T10:13:02.525Z,52.18
2022-09-23T10:15:33.188Z,52.16
2022-09-23T10:18:01.904Z,51.96
2022-09-23T10:20:38.135Z,51.92
2022-09-23T10:23:09.758Z,52.18
2022-09-23T10:25:37.692Z,52.01
2022-09-23T10:28:46.935Z,52.13
2022-09-23T10:31:15.470Z,52.00
2022-09-23T10:33:43.719Z,51.94
2022-09-23T10:36:12.863Z,52.16
2022-09-23T10:38:40.449Z,52.13
2022-09-23T10:41:32.171Z,52.01
2022-09-23T10:44:22.254Z,51.76
2022-09-23T10:46:52.545Z,52.34
2022-09-23T10:49:31.993Z,51.94
2022-09-23T10:52:08.017Z,51.93
2022-09-23T10:54:39.889Z,51.86
2022-09-23T10:57:30.942Z,51.83
2022-09-23T11:00:23.079Z,52.03
2022-09-23T11:03:39.281Z,51.87
2022-09-23T11:06:14.025Z,52.07
2022-09-23T11:08:51.520Z,52.06
2022-09-23T11:11:24.511Z,51.97
2022-09-23T11:14:04.096Z,51.84
2022-09-23T11:16:40.314Z,51.90
2022-09-23T11:19:18.487Z,51.83
2022-09-23T11:21:52.023Z,51.78
2022-09-23T11:24:31.734Z,51.91
2022-09-23T11:27:05.223Z,51.91
2022-09-23T11:29:45.690Z,51.95
2022-09-23T11:32:29.263Z,51.72
2022-09-23T11:35:03.974Z,51.80
2022-09-23T11:37:33.072Z,51.65
2022-09-23T11:40:03.513Z,51.80
2022-09-23T11:42:32.771Z,51.74
2022-09-23T11:45:02.075Z,51.78
2022-09-23T11:47:30.640Z,51.68
2022-09-23T11:50:00.209Z,51.86
2022-09-23T11:52:30.029Z,51.85
2022-09-23T11:54:59.195Z,51.70
2022-09-23T11:57:46.354Z,51.88
2022-09-23T12:00:18.961Z,51.96
2022-09-23T12:03:03.480Z,51.72
2022-09-23T12:05:34.378Z,51.82
2022-09-23T12:08:03.970Z,51.83
2022-09-23T12:10:39.504Z,51.92
2022-09-23T12:13:11.726Z,51.77
2022-09-23T12:15:45.661Z,51.85
2022-09-23T12:18:26.309Z,51.77
2022-09-23T12:21:01.269Z,51.70
2022-09-23T12:23:45.596Z,51.52
2022-09-23T12:26:14.548Z,51.75
2022-09-23T12:28:44.980Z,51.67
2022-09-23T12:31:13.978Z,51.81
2022-09-23T12:33:41.973Z,51.76
2022-09-23T12:36:10.132Z,51.71
2022-09-23T12:38:38.384Z,51.82
2022-09-23T12:41:20.416Z,51.72
2022-09-23T12:43:56.167Z,51.73
2022-09-23T12:46:25.848Z,51.80
2022-09-23T12:49:01.122Z,51.86
2022-09-23T12:51:29.018Z,51.74
2022-09-23T12:54:24.191Z,51.93
2022-09-23T12:56:59.409Z,51.96
2022-09-23T12:59:29.525Z,52.02
2022-09-23T13:01:57.197Z,52.02
2022-09-23T13:04:50.161Z,52.24
2022-09-23T13:07:18.163Z,52.27
2022-09-23T13:09:48.078Z,52.40
2022-09-23T13:12:19.041Z,52.25
2022-09-23T13:14:47.997Z,52.54
2022-09-23T13:17:24.461Z,52.66
2022-09-23T13:19:59.492Z,52.65
2022-09-23T13:23:15.213Z,52.75
2022-09-23T13:25:43.119Z,52.89
2022-09-23T13:28:19.189Z,53.02
2022-09-23T13:30:51.957Z,53.14
2022-09-23T13:33:24.502Z,53.47
2022-09-23T13:35:52.704Z,53.20
2022-09-23T13:38:25.875Z,53.39
2022-09-23T13:40:55.005Z,53.50
2022-09-23T13:43:23.917Z,53.54
2022-09-23T13:45:52.824Z,53.04
2022-09-23T13:48:20.744Z,53.16
2022-09-23T13:50:49.706Z,53.13
2022-09-23T13:53:23.089Z,53.03
2022-09-23T13:56:00.565Z,52.96
2022-09-23T13:58:29.902Z,52.97
2022-09-23T14:00:58.922Z,52.95
2022-09-23T14:03:31.275Z,52.66
2022-09-23T14:06:04.964Z,52.63
2022-09-23T14:08:32.712Z,52.79
2022-09-23T14:11:00.401Z,52.75
2022-09-23T14:13:29.764Z,52.70
2022-09-23T14:15:59.804Z,52.58
2022-09-23T14:18:33.509Z,52.34
2022-09-23T14:21:01.092Z,52.52
2022-09-23T14:23:28.737Z,52.39
2022-09-23T14:25:56.525Z,52.34
2022-09-23T14:28:24.704Z,52.23
2022-09-23T14:30:53.804Z,52.52
2022-09-23T14:33:24.790Z,52.53
2022-09-23T14:35:53.483Z,52.56
2022-09-23T14:38:40.607Z,52.51
2022-09-23T14:41:30.658Z,52.52
2022-09-23T14:43:59.460Z,52.52
2022-09-23T14:46:28.161Z,52.33
2022-09-23T14:49:03.106Z,52.51
2022-09-23T14:51:49.275Z,52.54
2022-09-23T14:54:33.643Z,52.48
2022-09-23T14:57:01.374Z,52.37
2022-09-23T14:59:29.756Z,52.57
2022-09-23T15:01:57.317Z,52.44
2022-09-23T15:04:37.717Z,52.44
2022-09-23T15:07:07.074Z,52.55
2022-09-23T15:09:39.344Z,52.49
2022-09-23T15:12:07.798Z,52.37
2022-09-23T15:14:39.425Z,52.24
2022-09-23T15:17:15.877Z,52.61
2022-09-23T15:19:44.905Z,52.48
2022-09-23T15:22:16.498Z,52.57
2022-09-23T15:24:45.050Z,52.46
2022-09-23T15:27:26.030Z,52.74
2022-09-23T15:29:53.980Z,52.67
2022-09-23T15:32:21.625Z,52.77
2022-09-23T15:34:53.646Z,52.82
2022-09-23T15:37:21.210Z,52.70
2022-09-23T15:39:49.045Z,52.76
2022-09-23T15:42:18.134Z,53.00
2022-09-23T15:44:45.850Z,52.79
2022-09-23T15:47:15.122Z,52.94
2022-09-23T15:49:42.723Z,52.99
2022-09-23T15:52:12.447Z,52.84
2022-09-23T15:54:40.070Z,52.79
2022-09-23T15:57:07.619Z,52.92
2022-09-23T15:59:38.091Z,52.89
2022-09-23T16:02:07.810Z,52.96
2022-09-23T16:04:35.934Z,53.00
2022-09-23T16:07:04.920Z,52.91
2022-09-23T16:09:33.866Z,53.11
2022-09-23T16:12:02.054Z,52.89
2022-09-23T16:14:29.703Z,53.22
2022-09-23T16:16:57.529Z,53.22
2022-09-23T16:19:25.627Z,53.13
2022-09-23T16:21:53.528Z,53.10
2022-09-23T16:24:27.322Z,53.11
2022-09-23T16:26:59.854Z,53.17
2022-09-23T16:29:27.566Z,53.02
2022-09-23T16:31:55.591Z,52.98
2022-09-23T16:34:23.270Z,53.04
2022-09-23T16:36:50.793Z,53.11
2022-09-23T16:39:20.433Z,53.11
2022-09-23T16:41:50.046Z,53.10
2022-09-23T16:44:18.994Z,53.01
2022-09-23T16:46:46.551Z,53.03
2022-09-23T16:49:14.128Z,52.95
2022-09-23T16:51:41.953Z,52.91
2022-09-23T16:54:11.032Z,52.92
2022-09-23T16:56:39.062Z,52.75
2022-09-23T16:59:06.841Z,52.64
2022-09-23T17:01:53.331Z,52.09
2022-09-23T17:04:22.043Z,51.99
2022-09-23T17:06:50.608Z,51.83
2022-09-23T17:09:18.653Z,51.59
2022-09-23T17:11:47.730Z,51.05
2022-09-23T17:14:15.596Z,51.18
2022-09-23T17:16:44.575Z,51.02
2022-09-23T17:19:12.622Z,50.71
2022-09-23T17:21:40.161Z,50.52
2022-09-23T17:24:07.831Z,50.67
2022-09-23T17:26:35.445Z,50.39
2022-09-23T17:29:03.001Z,50.32
2022-09-23T17:31:30.699Z,49.87
2022-09-23T17:34:00.840Z,49.64
2022-09-23T17:36:28.894Z,49.89
2022-09-23T17:38:56.656Z,49.72
2022-09-23T17:41:24.218Z,49.60
2022-09-23T17:43:55.000Z,49.81
2022-09-23T17:46:23.173Z,49.43
2022-09-23T17:48:55.502Z,49.45
2022-09-23T17:51:25.243Z,49.36
2022-09-23T17:53:52.808Z,49.42
2022-09-23T17:56:21.609Z,49.42
2022-09-23T17:58:49.844Z,49.28
2022-09-23T18:01:18.543Z,49.32
2022-09-23T18:03:46.323Z,49.31
2022-09-23T18:06:15.121Z,49.33
2022-09-23T18:08:44.785Z,49.22
2022-09-23T18:11:16.910Z,49.15
2022-09-23T18:13:48.494Z,49.11
2022-09-23T18:16:16.288Z,48.94
2022-09-23T18:18:44.635Z,49.51
2022-09-23T18:21:12.757Z,48.82
2022-09-23T18:23:40.588Z,48.88
2022-09-23T18:26:17.704Z,48.90
2022-09-23T18:28:45.730Z,49.09
2022-09-23T18:31:13.552Z,48.82
2022-09-23T18:33:41.663Z,48.78
2022-09-23T18:36:09.756Z,49.09
2022-09-23T18:38:40.758Z,48.94
2022-09-23T18:41:09.426Z,48.66
2022-09-23T18:43:43.105Z,48.71
2022-09-23T18:46:15.175Z,48.64
2022-09-23T18:49:00.882Z,48.98
2022-09-23T18:51:30.629Z,48.89
2022-09-23T18:53:58.715Z,48.69
2022-09-23T18:56:27.722Z,48.70
2022-09-23T18:58:57.208Z,48.60
2022-09-23T19:01:25.372Z,48.75
2022-09-23T19:03:55.682Z,48.68
2022-09-23T19:06:23.493Z,48.69
2022-09-23T19:08:51.649Z,48.67
2022-09-23T19:11:19.891Z,48.86
2022-09-23T19:13:47.668Z,48.89
2022-09-23T19:16:22.590Z,49.04
2022-09-23T19:18:50.809Z,48.62
2022-09-23T19:21:20.437Z,48.61
2022-09-23T19:23:48.716Z,48.76
2022-09-23T19:26:17.321Z,48.86
2022-09-23T19:28:48.588Z,49.45
2022-09-23T19:31:18.412Z,49.53
2022-09-23T19:33:50.273Z,49.14
2022-09-23T19:36:17.984Z,49.21
2022-09-23T19:38:45.619Z,49.51
2022-09-23T19:41:14.945Z,49.60
2022-09-23T19:43:54.308Z,49.73
2022-09-23T19:46:23.623Z,49.73
2022-09-23T19:48:51.443Z,50.09
2022-09-23T19:51:19.177Z,50.05
2022-09-23T19:53:47.456Z,50.40
2022-09-23T19:56:17.740Z,49.82
2022-09-23T19:58:47.241Z,50.11
2022-09-23T20:01:16.194Z,49.67
2022-09-23T20:03:45.643Z,49.65
2022-09-23T20:06:13.182Z,49.58
2022-09-23T20:08:40.801Z,49.73
2022-09-23T20:11:12.416Z,49.80
2022-09-23T20:13:39.957Z,49.43
2022-09-23T20:16:10.528Z,49.50
2022-09-23T20:18:38.143Z,49.19
2022-09-23T20:21:07.333Z,49.53
2022-09-23T20:23:34.979Z,49.13
2022-09-23T20:26:20.750Z,48.95
2022-09-23T20:28:48.857Z,49.05
2022-09-23T20:31:16.878Z,49.05
2022-09-23T20:33:46.079Z,48.99
2022-09-23T20:36:15.267Z,48.72
2022-09-23T20:38:42.809Z,48.63
2022-09-23T20:41:10.363Z,48.96
2022-09-23T20:43:37.921Z,48.64
2022-09-23T20:46:06.333Z,48.53
2022-09-23T20:48:33.916Z,48.54
2022-09-23T20:51:02.024Z,48.99
2022-09-23T20:53:32.224Z,48.49
2022-09-23T20:55:59.893Z,48.51
2022-09-23T20:58:29.061Z,48.55
2022-09-23T21:01:02.371Z,48.42
2022-09-23T21:03:31.663Z,48.71
2022-09-23T21:06:03.756Z,48.25
2022-09-23T21:08:33.409Z,48.35
2022-09-23T21:11:02.256Z,48.34
2022-09-23T21:13:30.121Z,48.35
2022-09-23T21:16:02.919Z,48.48
2022-09-23T21:18:30.764Z,48.42
2022-09-23T21:20:59.145Z,48.44
2022-09-23T21:23:27.299Z,48.32
2022-09-23T21:26:02.405Z,48.41
2022-09-23T21:28:32.897Z,48.70
2022-09-23T21:31:00.910Z,48.43
2022-09-23T21:33:28.664Z,48.35
2022-09-23T21:35:56.268Z,48.33
2022-09-23T21:38:24.100Z,48.37
2022-09-23T21:40:59.976Z,48.26
2022-09-23T21:43:28.043Z,48.32
2022-09-23T21:45:59.517Z,48.86
2022-09-23T21:48:30.913Z,48.47
2022-09-23T21:50:59.082Z,48.42
2022-09-23T21:53:27.024Z,48.41
2022-09-23T21:55:54.567Z,48.63
2022-09-23T21:58:23.463Z,48.74
2022-09-23T22:00:51.045Z,48.67
2022-09-23T22:03:18.699Z,49.15
2022-09-23T22:05:46.239Z,49.08
2022-09-23T22:08:13.791Z,49.21
2022-09-23T22:10:41.310Z,49.35
2022-09-23T22:13:12.682Z,49.50
2022-09-23T22:15:41.994Z,49.69
2022-09-23T22:18:10.068Z,49.81
2022-09-23T22:20:37.659Z,49.94
2022-09-23T22:23:05.189Z,50.07
2022-09-23T22:25:33.162Z,50.08
2022-09-23T22:28:18.251Z,50.09
2022-09-23T22:31:04.974Z,50.12
2022-09-23T22:33:32.699Z,50.22
2022-09-23T22:36:03.734Z,50.40
2022-09-23T22:38:32.747Z,50.47
2022-09-23T22:41:00.762Z,50.57
2022-09-23T22:43:28.455Z,50.67
2022-09-23T22:45:57.356Z,50.69
2022-09-23T22:48:25.189Z,50.73
2022-09-23T22:50:52.731Z,50.99
2022-09-23T22:53:20.304Z,50.90
2022-09-23T22:55:59.086Z,50.88
2022-09-23T22:58:32.378Z,50.92
2022-09-23T23:01:02.465Z,51.13
2022-09-23T23:03:30.768Z,51.14
2022-09-23T23:06:00.457Z,51.32
2022-09-23T23:08:28.165Z,51.37
2022-09-23T23:10:55.901Z,51.55
2022-09-23T23:13:23.591Z,51.27
2022-09-23T23:15:51.189Z,51.41
2022-09-23T23:18:20.168Z,51.51
2022-09-23T23:20:47.696Z,51.44
2022-09-23T23:23:15.238Z,51.40
2022-09-23T23:25:42.780Z,51.52
2022-09-23T23:28:10.297Z,51.61
2022-09-23T23:30:37.938Z,51.43
2022-09-23T23:33:05.477Z,51.72
2022-09-23T23:35:34.373Z,51.56
2022-09-23T23:38:01.939Z,51.73
2022-09-23T23:40:29.606Z,51.82
2022-09-23T23:42:57.223Z,51.71
2022-09-23T23:45:24.812Z,51.74
2022-09-23T23:47:52.365Z,51.72
2022-09-23T23:50:19.947Z,51.80
2022-09-23T23:52:48.817Z,51.89
2022-09-23T23:55:16.941Z,51.91
2022-09-23T23:57:44.543Z,52.06
